Time;durP1;ratioP1;P1;durP2;ratioP2;P2;SDS_P1;SDS_P2;PMS_P1;PMS_P2;Temp;Humidity;BMP_temperature;BMP_pressure;BME280_temperature;BME280_humidity;BME280_pressure;Samples;Min_cycle;Max_cycle;Signal;HPM_P1;HPM_P2
2022/10/24 00:00:45;;;;;;;14.32;10.18;;;;;;;16.15;77.52;100113.34;4454893;32;33998;-76
2022/10/24 00:03:14;;;;;;;18.40;10.43;;;;;;;16.14;77.10;100106.25;4455093;32;34009;-75
2022/10/24 00:05:46;;;;;;;15.70;10.27;;;;;;;16.47;75.59;100114.91;4454681;32;34453;-77
2022/10/24 00:08:15;;;;;;;17.12;10.82;;;;;;;16.59;75.24;100106.41;4454811;32;34704;-77
2022/10/24 00:10:46;;;;;;;14.63;9.82;;;;;;;16.32;76.02;100102.09;4455025;32;35086;-76
2022/10/24 00:13:15;;;;;;;17.50;10.23;;;;;;;16.35;76.32;100107.03;4440854;32;34346;-76
2022/10/24 00:15:45;;;;;;;16.85;10.50;;;;;;;16.11;77.64;100106.81;4454949;32;33501;-76
2022/10/24 00:18:12;;;;;;;16.37;10.85;;;;;;;15.94;78.30;100106.28;4455004;32;34117;-77
2022/10/24 00:20:40;;;;;;;18.73;10.68;;;;;;;15.81;79.10;100106.81;4454840;32;34302;-77
2022/10/24 00:23:13;;;;;;;17.62;10.50;;;;;;;15.70;80.04;100105.97;4470167;32;33822;-77
2022/10/24 00:25:40;;;;;;;19.37;11.27;;;;;;;16.01;78.79;100111.47;4470101;32;33499;-74
2022/10/24 00:28:08;;;;;;;18.92;11.25;;;;;;;16.34;76.85;100110.03;4470555;32;34054;-77
2022/10/24 00:30:35;;;;;;;17.40;11.20;;;;;;;15.86;78.61;100106.84;4470319;32;34935;-76
2022/10/24 00:33:03;;;;;;;18.45;10.55;;;;;;;16.07;78.17;100111.19;4470177;32;34956;-76
2022/10/24 00:35:31;;;;;;;16.90;11.00;;;;;;;16.23;77.22;100092.00;4469983;32;33386;-75
2022/10/24 00:37:58;;;;;;;17.70;10.95;;;;;;;16.33;76.74;100089.25;4470275;32;34173;-77
2022/10/24 00:40:26;;;;;;;16.62;11.68;;;;;;;15.86;78.68;100099.44;4469260;32;34277;-76
2022/10/24 00:42:53;;;;;;;20.15;11.40;;;;;;;16.30;76.96;100087.03;4470539;32;33831;-76
2022/10/24 00:45:34;;;;;;;18.62;12.20;;;;;;;15.89;78.76;100089.88;4470420;32;32698;-76
2022/10/24 00:48:13;;;;;;;18.75;12.18;;;;;;;15.57;81.46;100083.56;4469992;32;34195;-77
2022/10/24 00:50:41;;;;;;;22.33;12.23;;;;;;;15.94;79.23;100087.94;4470108;32;34425;-75
2022/10/24 00:53:08;;;;;;;19.90;11.95;;;;;;;15.89;79.24;100089.88;4455893;32;33161;-77
2022/10/24 00:55:36;;;;;;;18.98;11.55;;;;;;;15.75;79.87;100082.22;4456246;32;33273;-77
2022/10/24 00:58:05;;;;;;;21.65;11.82;;;;;;;15.58;80.97;100081.66;4470134;32;33694;-76
2022/10/24 01:00:33;;;;;;;18.02;12.27;;;;;;;15.91;79.30;100082.19;4455882;32;34150;-77
2022/10/24 01:03:01;;;;;;;19.65;11.95;;;;;;;16.05;78.32;100079.72;4470187;32;33608;-77
2022/10/24 01:05:37;;;;;;;20.17;12.07;;;;;;;15.66;79.91;100078.38;4466455;32;34397;-77
2022/10/24 01:08:23;;;;;;;18.23;12.40;;;;;;;15.51;80.96;100081.13;4454458;32;34014;-76
2022/10/24 01:10:57;;;;;;;18.12;11.50;;;;;;;15.71;80.49;100086.59;4441062;32;35075;-76
2022/10/24 01:13:34;;;;;;;18.08;11.52;;;;;;;16.01;78.36;100082.19;4454684;32;34111;-77
2022/10/24 01:16:36;;;;;;;20.98;11.77;;;;;;;15.30;82.40;100063.87;4447594;32;33154;-75
2022/10/24 01:19:35;;;;;;;18.45;12.25;;;;;;;15.61;80.91;100069.34;4452768;32;34095;-76
2022/10/24 01:22:08;;;;;;;17.65;11.40;;;;;;;15.90;78.99;100066.91;4461776;32;34830;-76
2022/10/24 01:25:14;;;;;;;17.75;11.85;;;;;;;15.78;79.27;100076.19;4440113;32;34144;-77
2022/10/24 01:28:00;;;;;;;18.87;11.88;;;;;;;16.03;78.09;100084.66;4440650;32;33741;-76
2022/10/24 01:30:31;;;;;;;17.75;11.82;;;;;;;16.00;77.36;100083.28;4440379;32;33844;-76
2022/10/24 01:33:03;;;;;;;19.15;12.15;;;;;;;15.55;79.78;100093.12;4440573;32;34305;-76
2022/10/24 01:35:52;;;;;;;17.05;10.82;;;;;;;15.76;78.97;100103.00;4440029;32;34786;-76
2022/10/24 01:38:24;;;;;;;18.40;11.75;;;;;;;15.85;78.65;100091.50;4454215;32;33407;-77
2022/10/24 01:40:58;;;;;;;16.10;11.32;;;;;;;15.87;78.46;100075.63;4440333;32;34020;-76
2022/10/24 01:43:39;;;;;;;19.83;11.82;;;;;;;15.35;80.97;100077.53;4440470;32;35066;-76
2022/10/24 01:46:18;;;;;;;18.00;11.20;;;;;;;15.45;79.67;100077.56;4440497;32;33710;-76
2022/10/24 01:48:54;;;;;;;19.15;11.45;;;;;;;15.67;79.05;100081.94;4454024;32;33680;-77
2022/10/24 01:51:23;;;;;;;20.25;12.13;;;;;;;15.67;79.09;100079.19;4439557;32;34093;-76
2022/10/24 01:53:50;;;;;;;19.35;12.23;;;;;;;15.91;77.87;100076.72;4440253;32;35286;-77
2022/10/24 01:56:18;;;;;;;18.70;12.15;;;;;;;15.96;77.45;100076.72;4440107;32;34800;-76
2022/10/24 01:58:45;;;;;;;19.73;11.73;;;;;;;15.91;77.58;100077.53;4440204;32;33616;-77
2022/10/24 02:01:15;;;;;;;21.12;12.00;;;;;;;15.86;77.68;100066.63;4454583;32;33993;-76
2022/10/24 02:03:53;;;;;;;18.15;11.20;;;;;;;15.76;78.39;100066.63;4453852;32;34142;-76
2022/10/24 02:06:33;;;;;;;19.90;12.18;;;;;;;15.53;79.24;100059.78;4463768;32;34038;-77
2022/10/24 02:09:06;;;;;;;17.83;10.90;;;;;;;15.25;80.75;100045.56;4455553;32;33924;-77
2022/10/24 02:11:34;;;;;;;18.42;12.02;;;;;;;15.44;79.44;100054.03;4455635;32;34047;-76
2022/10/24 02:14:08;;;;;;;18.33;11.18;;;;;;;15.50;79.30;100044.72;4469441;32;35155;-76
2022/10/24 02:16:36;;;;;;;21.33;11.98;;;;;;;15.57;79.30;100045.28;4455618;32;34900;-76
2022/10/24 02:19:03;;;;;;;19.95;12.18;;;;;;;15.25;80.84;100050.19;4469712;32;33826;-76
2022/10/24 02:21:41;;;;;;;17.52;10.57;;;;;;;15.48;79.49;100040.63;4442472;32;34103;-77
2022/10/24 02:24:18;;;;;;;20.62;11.77;;;;;;;15.39;80.33;100035.69;4453930;32;35013;-77
2022/10/24 02:26:53;;;;;;;18.85;11.57;;;;;;;15.30;80.87;100036.53;4439842;32;33799;-77
2022/10/24 02:29:34;;;;;;;20.75;12.27;;;;;;;15.54;79.52;100040.34;4440053;32;34167;-77
2022/10/24 02:32:05;;;;;;;17.58;11.25;;;;;;;15.45;79.69;100038.47;4453653;32;33929;-77
2022/10/24 02:34:34;;;;;;;18.33;11.32;;;;;;;15.05;81.47;100056.47;4440076;32;35139;-77
2022/10/24 02:37:03;;;;;;;18.83;12.10;;;;;;;15.18;81.25;100055.94;4439729;32;34629;-76
2022/10/24 02:39:30;;;;;;;18.35;11.88;;;;;;;15.40;80.01;100047.47;4440128;32;33666;-77
2022/10/24 02:41:58;;;;;;;18.12;11.43;;;;;;;15.17;80.79;100037.91;4439809;32;33902;-76
2022/10/24 02:44:28;;;;;;;18.75;11.73;;;;;;;15.39;79.65;100043.09;4447254;32;35039;-76
2022/10/24 02:46:57;;;;;;;19.83;11.65;;;;;;;15.59;78.46;100037.63;4455472;32;33557;-76
2022/10/24 02:49:25;;;;;;;19.30;11.18;;;;;;;15.51;78.86;100042.84;4469207;32;33586;-76
2022/10/24 02:51:52;;;;;;;21.37;11.23;;;;;;;15.38;79.49;100052.41;4468944;32;34957;-77
2022/10/24 02:54:20;;;;;;;19.52;12.00;;;;;;;15.43;79.58;100051.56;4455135;32;35062;-76
2022/10/24 02:56:57;;;;;;;17.50;11.27;;;;;;;15.48;79.28;100060.59;4469207;32;33975;-77
2022/10/24 02:59:25;;;;;;;18.92;11.63;;;;;;;15.31;79.51;100049.94;4459680;32;33400;-76
2022/10/24 03:01:52;;;;;;;17.30;11.32;;;;;;;15.52;79.11;100049.94;4453627;32;34837;-76
2022/10/24 03:04:20;;;;;;;20.65;12.20;;;;;;;15.56;78.30;100046.38;4454377;32;33860;-76
2022/10/24 03:06:47;;;;;;;19.25;11.30;;;;;;;15.20;80.33;100031.88;4441009;32;34955;-77
2022/10/24 03:09:15;;;;;;;20.60;11.90;;;;;;;15.08;81.18;100028.59;4455344;32;33798;-76
2022/10/24 03:11:42;;;;;;;23.12;12.45;;;;;;;15.22;79.92;100021.50;4455490;32;33889;-79
2022/10/24 03:14:10;;;;;;;17.80;11.45;;;;;;;15.13;80.48;100009.47;4455037;32;34104;-77
2022/10/24 03:16:37;;;;;;;17.58;11.45;;;;;;;14.94;81.83;100004.53;4441386;32;33810;-77
2022/10/24 03:19:05;;;;;;;21.85;12.37;;;;;;;15.13;81.00;100013.00;4455154;32;33785;-76
2022/10/24 03:21:32;;;;;;;19.45;11.80;;;;;;;14.96;82.08;99998.78;4455078;32;33913;-77
2022/10/24 03:24:00;;;;;;;18.42;11.73;;;;;;;14.63;83.88;100008.31;4455270;32;33947;-77
2022/10/24 03:26:27;;;;;;;20.30;11.60;;;;;;;14.93;82.27;100015.75;4455120;32;34711;-77
2022/10/24 03:28:54;;;;;;;20.88;11.65;;;;;;;14.92;81.89;100012.19;4463805;32;34266;-76
2022/10/24 03:31:22;;;;;;;17.87;12.20;;;;;;;15.00;81.54;100007.28;4470788;32;34101;-77
2022/10/24 03:33:49;;;;;;;19.08;11.73;;;;;;;14.67;83.13;100020.34;4470820;32;35053;-77
2022/10/24 03:36:17;;;;;;;18.85;11.85;;;;;;;14.54;84.86;100021.62;4470611;32;33749;-77
2022/10/24 03:38:44;;;;;;;20.25;12.25;;;;;;;15.03;81.85;100023.13;4456193;32;34258;-76
2022/10/24 03:41:12;;;;;;;20.05;12.20;;;;;;;15.18;80.96;100017.66;4455197;32;33756;-76
2022/10/24 03:43:39;;;;;;;18.95;11.05;;;;;;;15.17;80.67;100024.22;4455047;32;33417;-74
2022/10/24 03:46:07;;;;;;;20.10;12.30;;;;;;;14.72;82.60;100012.16;4455105;32;33885;-76
2022/10/24 03:48:34;;;;;;;19.08;12.13;;;;;;;15.00;81.65;100018.22;4455855;32;33599;-77
2022/10/24 03:51:01;;;;;;;19.25;11.57;;;;;;;15.15;80.94;100023.69;4454745;32;33839;-74
2022/10/24 03:53:29;;;;;;;19.80;11.63;;;;;;;15.00;80.85;100020.94;4455381;32;34311;-79
2022/10/24 03:55:56;;;;;;;23.12;13.07;;;;;;;15.37;78.74;100020.66;4454985;32;35082;-77
2022/10/24 03:58:24;;;;;;;21.30;11.98;;;;;;;15.45;78.42;100035.72;4454860;32;34282;-76
2022/10/24 04:00:52;;;;;;;19.10;11.65;;;;;;;15.18;79.48;100034.91;4455088;32;33771;-76
2022/10/24 04:03:19;;;;;;;18.52;11.45;;;;;;;15.33;79.20;100036.81;4455041;32;34246;-76
2022/10/24 04:05:47;;;;;;;20.20;12.00;;;;;;;15.03;80.02;100042.25;4463862;32;33726;-77
2022/10/24 04:08:14;;;;;;;19.52;11.65;;;;;;;15.33;78.45;100042.28;4470801;32;33617;-77
2022/10/24 04:10:41;;;;;;;19.05;12.45;;;;;;;15.15;79.23;100040.09;4470413;32;33662;-73
2022/10/24 04:13:09;;;;;;;18.62;11.95;;;;;;;15.07;80.25;100043.34;4457290;32;33449;-75
2022/10/24 04:15:37;;;;;;;21.20;12.55;;;;;;;15.23;79.46;100042.28;4454953;32;34226;-76
2022/10/24 04:18:04;;;;;;;19.37;12.00;;;;;;;15.18;79.39;100039.53;4454891;32;33576;-76
2022/10/24 04:20:32;;;;;;;23.55;12.10;;;;;;;15.39;77.92;100038.44;4463904;32;34925;-77
2022/10/24 04:22:59;;;;;;;19.73;11.77;;;;;;;15.37;78.12;100028.88;4470434;32;34122;-76
2022/10/24 04:25:31;;;;;;;20.23;12.05;;;;;;;15.22;78.86;100023.41;4470320;32;33976;-74
2022/10/24 04:27:58;;;;;;;20.05;12.27;;;;;;;15.08;79.48;100026.69;4469964;32;34734;-75
2022/10/24 04:30:27;;;;;;;21.00;12.93;;;;;;;14.91;80.24;100029.66;4470650;32;33861;-82
2022/10/24 04:32:55;;;;;;;21.17;12.63;;;;;;;14.53;82.19;100020.78;4470176;32;35051;-74
2022/10/24 04:35:24;;;;;;;21.85;12.95;;;;;;;14.74;81.43;100026.34;4470020;32;34732;-79
2022/10/24 04:37:52;;;;;;;20.42;11.65;;;;;;;14.66;81.74;100024.13;4470304;32;34176;-76
2022/10/24 04:40:19;;;;;;;21.15;12.45;;;;;;;14.88;80.76;100024.75;4456050;32;33986;-76
2022/10/24 04:42:47;;;;;;;20.90;12.98;;;;;;;14.76;81.07;100022.25;4470553;32;34276;-77
2022/10/24 04:45:14;;;;;;;24.60;13.52;;;;;;;14.61;82.34;100024.13;4470157;32;34271;-77
2022/10/24 04:47:42;;;;;;;24.73;12.75;;;;;;;14.59;81.73;100015.41;4448113;32;33817;-76
2022/10/24 04:50:10;;;;;;;22.23;12.48;;;;;;;14.52;82.75;100008.25;4465060;32;33887;-73
2022/10/24 04:52:38;;;;;;;24.35;13.20;;;;;;;14.43;83.35;100003.59;4454434;32;33952;-77
2022/10/24 04:55:05;;;;;;;20.85;12.82;;;;;;;14.53;82.29;99996.22;4454333;32;34928;-71
2022/10/24 04:57:33;;;;;;;20.33;12.70;;;;;;;14.68;81.92;100002.84;4454610;32;33435;-78
2022/10/24 05:00:00;;;;;;;22.75;13.45;;;;;;;14.71;81.56;100003.13;4454538;32;34923;-78
2022/10/24 05:02:28;;;;;;;23.30;13.77;;;;;;;14.55;82.47;99999.53;4454451;32;34898;-78
2022/10/24 05:04:55;;;;;;;26.05;14.43;;;;;;;14.06;85.07;99999.88;4454548;32;33824;-75
2022/10/24 05:07:22;;;;;;;24.15;14.00;;;;;;;14.22;84.25;99999.94;4454417;32;34030;-77
2022/10/24 05:09:50;;;;;;;26.62;15.13;;;;;;;14.13;85.22;100018.75;4454260;32;34822;-76
2022/10/24 05:12:17;;;;;;;26.55;14.82;;;;;;;14.26;83.91;100031.09;4454485;32;34947;-76
2022/10/24 05:14:50;;;;;;;25.88;14.60;;;;;;;14.47;82.69;100029.22;4454483;32;34381;-76
2022/10/24 05:17:17;;;;;;;25.83;14.02;;;;;;;14.63;82.16;100028.25;4454335;32;33426;-77
2022/10/24 05:19:45;;;;;;;24.40;15.45;;;;;;;14.49;82.39;100035.25;4454404;32;33742;-76
2022/10/24 05:22:12;;;;;;;27.30;14.98;;;;;;;14.49;81.85;100038.81;4454733;32;34334;-76
2022/10/24 05:24:39;;;;;;;25.77;13.95;;;;;;;14.86;80.64;100046.06;4454180;32;33977;-77
2022/10/24 05:27:07;;;;;;;22.62;13.75;;;;;;;14.57;81.30;100051.16;4454059;32;33574;-77
2022/10/24 05:29:34;;;;;;;23.62;14.48;;;;;;;15.03;79.44;100059.47;4455077;32;33785;-76
2022/10/24 05:32:03;;;;;;;29.75;15.43;;;;;;;14.82;80.22;100060.53;4470072;32;34323;-76
2022/10/24 05:34:31;;;;;;;30.33;15.55;;;;;;;14.56;81.66;100058.53;4467425;32;34222;-76
2022/10/24 05:36:58;;;;;;;27.85;14.80;;;;;;;14.77;81.15;100055.84;4454594;32;33778;-76
2022/10/24 05:39:26;;;;;;;31.02;16.02;;;;;;;14.46;82.34;100052.19;4453987;32;34757;-77
2022/10/24 05:41:53;;;;;;;28.30;15.95;;;;;;;14.81;81.33;100054.22;4440440;32;33950;-77
2022/10/24 05:44:22;;;;;;;25.48;14.87;;;;;;;14.60;81.40;100064.28;4454274;32;34647;-77
2022/10/24 05:46:49;;;;;;;27.80;14.98;;;;;;;14.35;82.84;100071.22;4454023;32;34527;-77
2022/10/24 05:49:16;;;;;;;26.87;14.70;;;;;;;14.65;81.77;100072.47;4454290;32;34723;-77
2022/10/24 05:51:44;;;;;;;27.67;14.45;;;;;;;14.57;81.81;100075.72;4453734;32;35121;-76
2022/10/24 05:54:11;;;;;;;33.42;15.73;;;;;;;14.50;81.98;100084.13;4440197;32;33834;-77
2022/10/24 05:56:44;;;;;;;26.73;14.98;;;;;;;14.65;81.51;100091.59;4454176;32;33460;-77
2022/10/24 05:59:11;;;;;;;25.35;14.87;;;;;;;14.74;80.18;100090.00;4453802;32;34816;-77
2022/10/24 06:01:39;;;;;;;29.10;16.02;;;;;;;14.93;79.72;100094.97;4452971;32;34855;-76
2022/10/24 06:04:07;;;;;;;28.73;15.05;;;;;;;14.89;79.58;100083.75;4453630;32;34572;-76
2022/10/24 06:06:42;;;;;;;27.98;15.82;;;;;;;15.22;77.82;100089.00;4453522;32;34227;-76
2022/10/24 06:09:10;;;;;;;29.02;15.60;;;;;;;15.11;78.12;100089.00;4440175;32;33994;-77
2022/10/24 06:11:38;;;;;;;26.90;14.93;;;;;;;15.03;78.85;100080.50;4453989;32;34160;-76
2022/10/24 06:14:05;;;;;;;34.58;16.00;;;;;;;14.84;79.61;100075.56;4453710;32;33959;-77
2022/10/24 06:16:33;;;;;;;32.30;15.85;;;;;;;14.76;80.37;100065.97;4454144;32;33691;-76
2022/10/24 06:19:01;;;;;;;27.25;14.52;;;;;;;14.79;80.68;100069.25;4438329;32;34014;-81
2022/10/24 06:21:28;;;;;;;25.77;15.30;;;;;;;14.97;79.46;100064.09;4453737;32;35181;-75
2022/10/24 06:23:56;;;;;;;29.60;15.80;;;;;;;14.52;81.51;100060.13;4453724;32;34245;-71
2022/10/24 06:26:24;;;;;;;28.58;15.63;;;;;;;14.29;83.49;100066.84;4453706;32;34571;-74
2022/10/24 06:28:52;;;;;;;32.15;16.52;;;;;;;14.39;82.98;100057.87;4453687;32;34094;-72
2022/10/24 06:31:20;;;;;;;28.83;15.75;;;;;;;14.50;82.35;100056.03;4452830;32;33990;-71
2022/10/24 06:33:47;;;;;;;26.83;14.35;;;;;;;14.61;82.20;100054.19;4453762;32;34541;-73
2022/10/24 06:36:15;;;;;;;31.02;15.98;;;;;;;14.25;84.67;100056.72;4453985;32;33303;-73
2022/10/24 06:38:42;;;;;;;31.12;16.48;;;;;;;14.62;82.10;100053.06;4452277;32;34749;-75
2022/10/24 06:41:12;;;;;;;32.03;16.40;;;;;;;14.27;84.19;100058.09;4453876;32;33988;-73
2022/10/24 06:43:41;;;;;;;35.72;17.80;;;;;;;14.04;85.53;100059.34;4453620;32;33556;-78
2022/10/24 06:46:11;;;;;;;33.75;18.05;;;;;;;14.21;84.30;100052.88;4453613;32;33291;-77
2022/10/24 06:48:38;;;;;;;35.22;16.95;;;;;;;14.01;85.58;100038.03;4439577;32;33865;-79
2022/10/24 06:51:06;;;;;;;31.98;16.05;;;;;;;13.97;86.44;100049.75;4453409;32;34073;-77
2022/10/24 06:53:33;;;;;;;30.55;16.77;;;;;;;14.45;83.38;100050.53;4453355;32;34133;-74
2022/10/24 06:56:02;;;;;;;35.63;17.83;;;;;;;14.55;82.58;100054.13;4453871;32;33212;-75
2022/10/24 06:58:31;;;;;;;31.85;17.15;;;;;;;14.13;85.15;100055.03;4453484;32;34821;-75
2022/10/24 07:00:59;;;;;;;41.78;18.98;;;;;;;14.23;84.57;100056.97;4453765;32;34316;-77
2022/10/24 07:03:27;;;;;;;41.55;18.25;;;;;;;14.41;82.80;100063.09;4439261;32;33890;-77
2022/10/24 07:05:54;;;;;;;41.17;18.05;;;;;;;14.23;84.24;100067.06;4453182;32;33632;-73
2022/10/24 07:08:22;;;;;;;38.67;18.98;;;;;;;14.28;83.92;100078.03;4450956;32;34787;-71
2022/10/24 07:10:49;;;;;;;39.28;19.20;;;;;;;14.16;85.32;100080.97;4438514;32;35165;-71
2022/10/24 07:13:16;;;;;;;39.20;19.08;;;;;;;14.09;85.28;100088.56;4436026;32;34132;-70
2022/10/24 07:15:44;;;;;;;38.00;17.90;;;;;;;14.35;84.46;100103.19;4436668;32;33868;-71
2022/10/24 07:18:14;;;;;;;37.38;18.30;;;;;;;14.11;85.46;100108.22;4436280;32;33993;-72
2022/10/24 07:20:41;;;;;;;45.17;19.10;;;;;;;14.48;83.11;100102.69;4436245;32;34205;-72
2022/10/24 07:23:09;;;;;;;39.35;18.48;;;;;;;14.18;84.70;100103.34;4436503;32;34797;-70
2022/10/24 07:25:38;;;;;;;35.28;17.37;;;;;;;14.34;84.03;100101.50;4435747;32;33469;-72
2022/10/24 07:28:07;;;;;;;42.90;18.27;;;;;;;14.42;83.92;100103.75;4436365;32;34889;-71
2022/10/24 07:30:34;;;;;;;38.05;17.23;;;;;;;14.49;83.23;100112.53;4422750;32;34246;-70
2022/10/24 07:33:02;;;;;;;41.55;18.50;;;;;;;14.43;83.40;100107.31;4436166;32;34789;-75
2022/10/24 07:35:29;;;;;;;42.20;18.05;;;;;;;14.31;84.09;100093.88;4436378;32;33315;-69
2022/10/24 07:37:57;;;;;;;38.25;17.15;;;;;;;14.34;83.59;100096.06;4436448;32;34177;-71
2022/10/24 07:40:24;;;;;;;42.33;19.15;;;;;;;14.46;83.06;100104.84;4435913;32;34154;-71
2022/10/24 07:42:52;;;;;;;41.95;18.80;;;;;;;14.55;82.82;100103.28;4436222;32;34688;-72
2022/10/24 07:45:19;;;;;;;40.63;18.95;;;;;;;13.88;86.75;100110.25;4436025;32;33191;-73
2022/10/24 07:47:47;;;;;;;44.30;20.58;;;;;;;14.07;86.80;100113.38;4436047;32;34742;-72
2022/10/24 07:50:16;;;;;;;42.95;19.73;;;;;;;13.80;87.21;100113.47;4437172;32;35169;-70
2022/10/24 07:52:43;;;;;;;41.60;19.23;;;;;;;14.02;87.41;100115.28;4438289;32;34378;-70
2022/10/24 07:55:11;;;;;;;38.08;19.00;;;;;;;14.19;85.97;100117.81;4437788;32;34301;-77
2022/10/24 07:57:38;;;;;;;44.20;20.27;;;;;;;14.41;84.85;100125.88;4438192;32;34345;-70
2022/10/24 08:00:06;;;;;;;43.67;20.20;;;;;;;14.07;86.80;100121.56;4438336;32;35001;-71
2022/10/24 08:02:38;;;;;;;47.15;19.58;;;;;;;14.37;84.79;100128.31;4438087;32;34034;-77
2022/10/24 08:05:06;;;;;;;41.35;19.42;;;;;;;14.24;86.12;100121.41;4438221;32;34418;-71
2022/10/24 08:07:35;;;;;;;46.00;19.23;;;;;;;14.42;84.99;100130.22;4438316;32;34548;-75
2022/10/24 08:10:04;;;;;;;44.75;20.40;;;;;;;14.01;86.80;100128.06;4429083;32;33900;-74
2022/10/24 08:12:32;;;;;;;45.90;18.40;;;;;;;13.85;88.82;100124.41;4439448;32;34783;-76
2022/10/24 08:15:00;;;;;;;41.15;19.95;;;;;;;14.12;87.34;100112.59;4453367;32;34238;-74
2022/10/24 08:17:27;;;;;;;43.03;20.08;;;;;;;14.15;87.04;100112.88;4453462;32;33912;-79
2022/10/24 08:19:55;;;;;;;51.45;20.33;;;;;;;14.12;87.24;100097.06;4453574;32;35043;-77
2022/10/24 08:22:22;;;;;;;47.25;21.20;;;;;;;14.15;86.76;100101.16;4453340;32;33598;-72
2022/10/24 08:24:49;;;;;;;51.13;21.77;;;;;;;14.06;87.96;100097.25;4452996;32;33137;-76
2022/10/24 08:27:17;;;;;;;47.88;20.05;;;;;;;14.27;86.95;100098.22;4453445;32;33737;-76
2022/10/24 08:29:44;;;;;;;48.63;19.60;;;;;;;14.06;87.70;100100.00;4453478;32;34150;-72
2022/10/24 08:32:12;;;;;;;45.28;18.83;;;;;;;13.98;88.87;100095.06;4453489;32;33558;-73
2022/10/24 08:34:39;;;;;;;50.70;21.30;;;;;;;13.95;89.33;100090.91;4453464;32;34197;-77
2022/10/24 08:37:07;;;;;;;53.10;20.60;;;;;;;13.90;89.74;100088.97;4450977;32;33891;-73
2022/10/24 08:39:34;;;;;;;42.35;19.25;;;;;;;14.18;87.70;100088.88;4452230;32;34930;-73
2022/10/24 08:42:04;;;;;;;46.13;20.20;;;;;;;14.03;88.32;100092.34;4453262;32;34594;-72
2022/10/24 08:44:35;;;;;;;41.90;19.05;;;;;;;14.23;87.97;100092.44;4439173;32;34305;-73
2022/10/24 08:47:30;;;;;;;40.35;19.98;;;;;;;14.35;86.72;100082.16;4438981;32;34586;-71
2022/10/24 08:50:20;;;;;;;47.93;20.40;;;;;;;14.49;85.06;100077.03;4452940;32;34137;-73
2022/10/24 08:53:15;;;;;;;47.25;19.52;;;;;;;14.28;86.39;100080.78;4438729;32;34229;-70
2022/10/24 08:55:44;;;;;;;43.53;20.08;;;;;;;14.59;84.91;100076.28;4438212;32;33272;-74
2022/10/24 08:58:20;;;;;;;;;;;;;;;14.34;85.77;100074.22;4441240;32;33993;-72
2022/10/24 09:00:50;;;;;;;48.10;19.40;;;;;;;14.45;85.46;100081.37;4450705;32;34640;-77
2022/10/24 09:03:29;;;;;;;40.63;19.00;;;;;;;14.43;85.22;100078.09;4440334;32;34759;-77
2022/10/24 09:06:24;;;;;;;46.65;20.80;;;;;;;14.34;87.04;100077.78;4454151;32;34377;-79
2022/10/24 09:08:53;;;;;;;39.53;19.67;;;;;;;14.68;84.95;100074.66;4439919;32;34097;-77
2022/10/24 09:11:45;;;;;;;43.95;18.80;;;;;;;14.53;85.68;100075.41;4440524;32;35757;-78
2022/10/24 09:14:15;;;;;;;45.12;19.80;;;;;;;14.21;87.39;100083.75;4454353;32;33699;-80
2022/10/24 09:16:45;;;;;;;42.97;18.73;;;;;;;14.47;86.46;100081.09;4454022;32;33373;-81
2022/10/24 09:19:20;;;;;;;42.20;19.25;;;;;;;14.63;84.89;100076.56;4439826;32;33738;-79
2022/10/24 09:21:47;;;;;;;;;;;;;;;14.90;82.76;100077.22;4453998;32;34344;-81
2022/10/24 09:24:32;;;;;;;37.05;18.12;;;;;;;14.73;83.53;100082.09;4438857;32;33936;-82
2022/10/24 09:27:03;;;;;;;39.70;16.58;;;;;;;14.61;84.50;100079.56;4453667;32;34190;-78
2022/10/24 09:29:32;;;;;;;41.42;19.05;;;;;;;14.74;84.17;100084.53;4440133;32;34925;-77
2022/10/24 09:32:00;;;;;;;45.95;19.40;;;;;;;14.16;87.90;100084.50;4453613;32;35138;-74
2022/10/24 09:34:27;;;;;;;38.95;17.55;;;;;;;14.72;83.51;100086.69;4440298;32;34094;-73
2022/10/24 09:36:55;;;;;;;37.17;17.95;;;;;;;14.41;86.65;100104.03;4453376;32;34122;-80
2022/10/24 09:39:27;;;;;;;39.30;17.77;;;;;;;14.51;86.64;100099.44;4452263;32;33979;-79
2022/10/24 09:41:55;;;;;;;38.85;17.90;;;;;;;15.04;83.10;100107.56;4439550;32;34729;-77
2022/10/24 09:44:42;;;;;;;37.55;17.87;;;;;;;14.56;85.27;100120.50;4439908;32;33761;-79
2022/10/24 09:47:23;;;;;;;34.80;17.52;;;;;;;14.60;85.41;100113.44;4454234;32;33473;-80
2022/10/24 09:49:50;;;;;;;38.80;16.35;;;;;;;14.51;86.23;100124.03;4439715;32;34828;-76
2022/10/24 09:52:21;;;;;;;34.03;16.08;;;;;;;14.69;85.13;100119.22;4439536;32;34712;-77
2022/10/24 09:55:19;;;;;;;34.58;18.20;;;;;;;14.54;85.88;100109.81;4454115;32;33989;-77
2022/10/24 09:57:51;;;;;;;35.35;16.62;;;;;;;14.67;84.59;100105.00;4440137;32;34338;-77
2022/10/24 10:00:34;;;;;;;34.40;16.90;;;;;;;14.34;86.41;100107.81;4439610;32;34602;-77
2022/10/24 10:03:03;;;;;;;39.65;17.52;;;;;;;14.55;86.33;100103.28;4453928;32;35118;-76
2022/10/24 10:05:53;;;;;;;36.17;16.48;;;;;;;15.09;83.12;100106.75;4453880;32;34751;-74
2022/10/24 10:08:28;;;;;;;35.08;18.45;;;;;;;14.72;85.31;100102.28;4438455;32;33737;-77
2022/10/24 10:10:57;;;;;;;;;;;;;;;14.91;84.21;100097.97;4453744;32;33986;-77
2022/10/24 10:13:26;;;;;;;37.60;17.85;;;;;;;15.05;84.60;100094.72;4439689;32;34335;-77
2022/10/24 10:15:57;;;;;;;34.47;16.52;;;;;;;15.17;82.41;100096.09;4453810;32;33777;-77
2022/10/24 10:18:32;;;;;;;34.88;17.48;;;;;;;15.31;82.25;100090.94;4439391;32;34229;-76
2022/10/24 10:21:12;;;;;;;35.25;16.90;;;;;;;15.56;81.29;100092.84;4424223;32;33935;-76
2022/10/24 10:23:54;;;;;;;31.92;16.17;;;;;;;15.64;79.89;100090.69;4423949;32;35019;-76
2022/10/24 10:26:27;;;;;;;29.25;15.02;;;;;;;15.49;80.54;100078.66;4438190;32;34015;-76
2022/10/24 10:29:19;;;;;;;29.08;15.07;;;;;;;15.20;82.46;100085.72;4424190;32;33070;-76
2022/10/24 10:32:13;;;;;;;30.77;16.67;;;;;;;15.49;81.73;100083.31;4437970;32;34759;-76
2022/10/24 10:34:46;;;;;;;28.52;15.35;;;;;;;15.45;82.34;100079.47;4422134;32;33726;-76
2022/10/24 10:37:28;;;;;;;32.75;15.38;;;;;;;15.47;82.61;100086.31;4435791;32;34061;-76
2022/10/24 10:40:01;;;;;;;29.52;14.45;;;;;;;15.77;79.80;100093.72;4434500;32;34369;-73
2022/10/24 10:42:37;;;;;;;28.40;15.23;;;;;;;15.77;79.40;100084.69;4452193;32;33782;-74
2022/10/24 10:45:16;;;;;;;30.05;15.95;;;;;;;15.58;81.29;100071.53;4452544;32;34206;-74
2022/10/24 10:48:02;;;;;;;35.03;16.37;;;;;;;15.39;82.22;100067.69;4438040;32;34767;-74
2022/10/24 10:50:38;;;;;;;31.23;14.87;;;;;;;15.67;80.49;100077.28;4452057;32;33442;-73
2022/10/24 10:53:49;;;;;;;26.92;14.00;;;;;;;15.66;80.22;100064.69;4450775;32;34000;-74
2022/10/24 10:56:31;;;;;;;28.33;14.10;;;;;;;15.49;80.43;100054.03;4418169;32;34982;-75
2022/10/24 10:59:19;;;;;;;28.05;14.82;;;;;;;15.72;80.05;100060.06;4436881;32;33952;-73
2022/10/24 11:02:00;;;;;;;26.75;14.05;;;;;;;15.62;80.12;100058.13;4452038;32;34359;-76
2022/10/24 11:04:42;;;;;;;28.17;14.85;;;;;;;15.81;80.13;100061.16;4438136;32;33570;-74
2022/10/24 11:07:16;;;;;;;23.27;13.82;;;;;;;16.13;77.81;100058.09;4437280;32;35012;-73
2022/10/24 11:09:53;;;;;;;24.90;13.38;;;;;;;16.21;76.67;100059.41;4451165;32;34678;-74
2022/10/24 11:12:34;;;;;;;25.90;14.52;;;;;;;15.83;79.09;100056.22;4438022;32;33209;-74
2022/10/24 11:15:14;;;;;;;24.27;13.65;;;;;;;15.78;79.65;100061.69;4437659;32;34567;-74
2022/10/24 11:18:25;;;;;;;22.10;12.55;;;;;;;15.88;78.76;100053.47;4451833;32;34214;-75
2022/10/24 11:21:01;;;;;;;21.42;13.55;;;;;;;16.25;76.04;100062.44;4417809;32;33814;-74
2022/10/24 11:23:52;;;;;;;25.35;13.38;;;;;;;16.42;74.70;100062.91;4418781;32;33564;-74
2022/10/24 11:26:31;;;;;;;22.08;12.93;;;;;;;16.34;74.95;100061.56;4430666;32;34843;-73
2022/10/24 11:29:12;;;;;;;22.00;12.85;;;;;;;16.43;74.33;100069.19;4439742;32;35019;-74